createdAt,value
2023-02-07T00:01:51.262Z,-7.34
2023-02-07T00:05:14.572Z,-7.30
2023-02-07T00:08:37.526Z,-7.24
2023-02-07T00:12:01.917Z,-7.18
2023-02-07T00:15:25.291Z,-7.10
2023-02-07T00:18:48.674Z,-7.05
2023-02-07T00:22:11.717Z,-7.06
2023-02-07T00:25:34.938Z,-6.96
2023-02-07T00:28:59.588Z,-6.93
2023-02-07T00:32:22.553Z,-6.93
2023-02-07T00:35:45.689Z,-6.89
2023-02-07T00:39:10.816Z,-6.87
2023-02-07T00:42:33.819Z,-6.83
2023-02-07T00:45:59.902Z,-6.83
2023-02-07T00:49:22.570Z,-6.82
2023-02-07T00:52:45.014Z,-6.84
2023-02-07T00:56:09.528Z,-6.85
2023-02-07T00:59:32.573Z,-6.87
2023-02-07T01:02:56.661Z,-6.85
2023-02-07T01:06:19.940Z,-6.84
2023-02-07T01:09:42.689Z,-6.82
2023-02-07T01:13:05.544Z,-6.83
2023-02-07T01:16:30.556Z,-6.85
2023-02-07T01:19:59.483Z,-6.85
2023-02-07T01:23:22.730Z,-6.88
2023-02-07T01:26:45.481Z,-6.87
2023-02-07T01:30:09.157Z,-6.84
2023-02-07T01:33:31.599Z,-6.86
2023-02-07T01:36:55.787Z,-6.86
2023-02-07T01:40:20.797Z,-6.87
2023-02-07T01:44:02.596Z,-6.93
2023-02-07T01:47:26.681Z,-6.91
2023-02-07T01:50:53.738Z,-6.93
2023-02-07T01:54:22.540Z,-6.95
2023-02-07T01:57:47.297Z,-6.94
2023-02-07T02:01:15.640Z,-6.92
2023-02-07T02:04:39.497Z,-6.92
2023-02-07T02:08:02.461Z,-6.88
2023-02-07T02:12:10.165Z,-6.83
2023-02-07T02:15:43.833Z,-6.81
2023-02-07T02:19:43.703Z,-6.82
2023-02-07T02:23:21.000Z,-6.92
2023-02-07T02:27:03.010Z,-6.84
2023-02-07T02:30:48.275Z,-6.91
2023-02-07T02:34:20.272Z,-6.87
2023-02-07T02:37:49.679Z,-6.92
2023-02-07T02:41:16.424Z,-7.04
2023-02-07T02:44:45.022Z,-6.97
2023-02-07T02:48:10.132Z,-7.08
2023-02-07T02:51:34.846Z,-7.01
2023-02-07T02:54:57.618Z,-7.03
2023-02-07T02:58:28.342Z,-7.05
2023-02-07T03:02:01.628Z,-7.05
2023-02-07T03:05:43.739Z,-7.21
2023-02-07T03:09:20.525Z,-7.07
2023-02-07T03:12:50.856Z,-7.09
2023-02-07T03:16:21.432Z,-7.09
2023-02-07T03:19:48.550Z,-7.08
2023-02-07T03:23:13.974Z,-7.12
2023-02-07T03:26:40.308Z,-7.05
2023-02-07T03:30:07.795Z,-7.03
2023-02-07T03:33:30.833Z,-7.08
2023-02-07T03:36:59.525Z,-6.96
2023-02-07T03:40:23.866Z,-6.95
2023-02-07T03:43:48.831Z,-6.94
2023-02-07T03:47:11.990Z,-6.92
2023-02-07T03:50:35.370Z,-6.91
2023-02-07T03:53:59.751Z,-6.89
2023-02-07T03:57:22.413Z,-6.87
2023-02-07T04:00:46.416Z,-6.89
2023-02-07T04:04:09.351Z,-6.91
2023-02-07T04:07:32.621Z,-6.97
2023-02-07T04:11:06.022Z,-6.89
2023-02-07T04:14:29.100Z,-6.86
2023-02-07T04:17:53.588Z,-6.86
2023-02-07T04:21:16.747Z,-6.87
2023-02-07T04:24:39.414Z,-6.98
2023-02-07T04:28:02.578Z,-6.95
2023-02-07T04:31:25.595Z,-6.78
2023-02-07T04:34:50.018Z,-6.72
2023-02-07T04:38:13.090Z,-6.70
2023-02-07T04:41:35.838Z,-6.69
2023-02-07T04:44:59.000Z,-6.69
2023-02-07T04:48:21.796Z,-6.68
2023-02-07T04:51:45.883Z,-6.69
2023-02-07T04:55:09.315Z,-6.69
2023-02-07T04:58:32.079Z,-6.70
2023-02-07T05:01:55.027Z,-6.69
2023-02-07T05:05:18.201Z,-6.66
2023-02-07T05:08:42.590Z,-6.64
2023-02-07T05:12:05.755Z,-6.63
2023-02-07T05:15:28.405Z,-6.64
2023-02-07T05:18:51.061Z,-6.66
2023-02-07T05:22:13.715Z,-6.64
2023-02-07T05:25:38.540Z,-6.65
2023-02-07T05:29:01.688Z,-6.64
2023-02-07T05:32:41.333Z,-6.66
2023-02-07T05:36:05.631Z,-6.69
2023-02-07T05:39:29.097Z,-6.72
2023-02-07T05:42:54.102Z,-6.71
2023-02-07T05:46:16.866Z,-6.74
2023-02-07T05:49:40.739Z,-6.72
2023-02-07T05:53:03.603Z,-6.73
2023-02-07T05:56:27.991Z,-6.70
2023-02-07T05:59:54.325Z,-6.68
2023-02-07T06:03:17.337Z,-6.66
2023-02-07T06:06:40.040Z,-6.68
2023-02-07T06:10:02.897Z,-6.66
2023-02-07T06:13:25.864Z,-6.60
2023-02-07T06:16:50.556Z,-6.62
2023-02-07T06:20:14.036Z,-6.53
2023-02-07T06:23:36.784Z,-6.45
2023-02-07T06:26:59.435Z,-6.46
2023-02-07T06:30:26.085Z,-6.41
2023-02-07T06:33:51.097Z,-6.35
2023-02-07T06:37:14.807Z,-6.34
2023-02-07T06:40:38.761Z,-6.35
2023-02-07T06:44:01.101Z,-6.30
2023-02-07T06:47:24.271Z,-6.32
2023-02-07T06:50:52.344Z,-6.25
2023-02-07T06:54:14.797Z,-6.26
2023-02-07T06:57:37.749Z,-6.25
2023-02-07T07:01:02.876Z,-6.19
2023-02-07T07:04:25.722Z,-6.13
2023-02-07T07:07:52.059Z,-6.06
2023-02-07T07:11:15.125Z,-6.04
2023-02-07T07:14:39.111Z,-5.94
2023-02-07T07:18:02.175Z,-5.95
2023-02-07T07:21:24.929Z,-5.83
2023-02-07T07:24:49.420Z,-5.81
2023-02-07T07:28:12.501Z,-5.77
2023-02-07T07:31:35.514Z,-5.63
2023-02-07T07:34:59.124Z,-5.53
2023-02-07T07:38:22.082Z,-5.51
2023-02-07T07:41:46.372Z,-5.40
2023-02-07T07:45:10.554Z,-5.35
2023-02-07T07:48:33.388Z,-5.24
2023-02-07T07:51:56.377Z,-5.18
2023-02-07T07:55:19.536Z,-5.25
2023-02-07T07:58:44.142Z,-5.11
2023-02-07T08:02:07.606Z,-5.14
2023-02-07T08:05:30.370Z,-5.15
2023-02-07T08:08:57.109Z,-5.08
2023-02-07T08:12:19.763Z,-4.99
2023-02-07T08:15:44.472Z,-4.89
2023-02-07T08:19:07.427Z,-4.81
2023-02-07T08:22:29.941Z,-4.72
2023-02-07T08:25:53.190Z,-4.67
2023-02-07T08:29:15.945Z,-4.59
2023-02-07T08:32:41.112Z,-4.53
2023-02-07T08:36:11.949Z,-4.46
2023-02-07T08:39:35.946Z,-4.49
2023-02-07T08:42:58.951Z,-4.32
2023-02-07T08:46:21.902Z,-4.24
2023-02-07T08:49:46.662Z,-4.15
2023-02-07T08:53:10.644Z,-4.17
2023-02-07T08:56:33.891Z,-4.03
2023-02-07T08:59:56.955Z,-3.94
2023-02-07T09:03:19.830Z,-3.87
2023-02-07T09:06:44.429Z,-3.73
2023-02-07T09:10:10.005Z,-3.63
2023-02-07T09:13:33.123Z,-3.59
2023-02-07T09:16:56.826Z,-3.61
2023-02-07T09:20:20.159Z,-3.42
2023-02-07T09:23:44.960Z,-3.43
2023-02-07T09:27:08.545Z,-3.46
2023-02-07T09:30:31.111Z,-3.46
2023-02-07T09:33:54.667Z,-3.29
2023-02-07T09:37:17.728Z,-3.27
2023-02-07T09:40:42.946Z,-3.20
2023-02-07T09:44:14.606Z,-3.14
2023-02-07T09:47:40.742Z,-3.17
2023-02-07T09:51:07.391Z,-3.09
2023-02-07T09:54:34.974Z,-3.12
2023-02-07T09:58:04.168Z,-3.10
2023-02-07T10:01:31.862Z,-3.10
2023-02-07T10:04:57.352Z,-3.04
2023-02-07T10:08:23.334Z,-3.02
2023-02-07T10:11:53.837Z,-2.98
2023-02-07T10:15:45.883Z,-2.85
2023-02-07T10:19:20.598Z,-2.70
2023-02-07T10:22:48.874Z,-2.60
2023-02-07T10:26:24.122Z,-2.56
2023-02-07T10:29:56.928Z,-2.49
2023-02-07T10:33:43.978Z,-2.40
2023-02-07T10:37:19.298Z,-2.37
2023-02-07T10:48:18.724Z,-2.84
2023-02-07T10:51:46.101Z,-2.22
2023-02-07T10:55:10.954Z,-2.04
2023-02-07T10:58:40.917Z,-2.26
2023-02-07T11:02:03.558Z,-2.09
2023-02-07T11:05:38.015Z,-1.99
2023-02-07T11:09:21.676Z,-1.91
2023-02-07T11:12:47.581Z,-1.92
2023-02-07T11:16:10.746Z,-1.89
2023-02-07T11:19:33.637Z,-1.81
2023-02-07T11:22:57.155Z,-1.76
2023-02-07T11:26:22.072Z,-1.81
2023-02-07T11:29:50.896Z,-1.85
2023-02-07T11:33:20.527Z,-1.80
2023-02-07T11:36:42.469Z,-1.82
2023-02-07T11:40:23.169Z,-1.85
2023-02-07T11:43:56.979Z,-1.79
2023-02-07T11:47:23.032Z,-1.76
2023-02-07T11:50:54.212Z,-1.80
2023-02-07T11:54:17.702Z,-1.66
2023-02-07T11:57:40.444Z,-1.73
2023-02-07T12:01:05.664Z,-1.71
2023-02-07T12:04:30.138Z,-1.76
2023-02-07T12:07:57.763Z,-1.76
2023-02-07T12:11:25.059Z,-1.75
2023-02-07T12:14:53.406Z,-1.71
2023-02-07T12:18:27.881Z,-1.71
2023-02-07T12:21:58.381Z,-1.82
2023-02-07T12:25:24.420Z,-1.76
2023-02-07T12:29:04.032Z,-1.71
2023-02-07T12:32:39.876Z,-1.74
2023-02-07T12:36:12.229Z,-1.75
2023-02-07T12:39:42.138Z,-1.73
2023-02-07T12:43:11.142Z,-1.79
2023-02-07T12:46:39.647Z,-1.83
2023-02-07T12:50:15.387Z,-1.90
2023-02-07T12:53:55.670Z,-1.85
2023-02-07T12:57:25.564Z,-1.80
2023-02-07T13:00:58.487Z,-1.74
2023-02-07T13:04:52.269Z,-1.77
2023-02-07T13:08:25.398Z,-1.78
2023-02-07T13:11:56.720Z,-1.78
2023-02-07T13:15:27.616Z,-1.78
2023-02-07T13:18:57.850Z,-1.76
2023-02-07T13:22:30.121Z,-1.76
2023-02-07T13:25:58.430Z,-1.73
2023-02-07T13:29:23.438Z,-1.77
2023-02-07T13:32:45.861Z,-1.80
2023-02-07T13:36:16.829Z,-1.73
2023-02-07T13:39:49.775Z,-1.74
2023-02-07T13:43:18.614Z,-1.75
2023-02-07T13:47:14.301Z,-1.73
2023-02-07T13:50:51.689Z,-1.63
2023-02-07T13:54:24.905Z,-1.58
2023-02-07T13:58:04.314Z,-1.58
2023-02-07T14:01:29.119Z,-1.55
2023-02-07T14:04:56.452Z,-1.53
2023-02-07T14:08:25.667Z,-1.56
2023-02-07T14:11:49.969Z,-1.61
2023-02-07T14:15:44.065Z,-1.52
2023-02-07T14:19:06.536Z,-1.60
2023-02-07T14:22:31.793Z,-1.53
2023-02-07T14:25:54.739Z,-1.53
2023-02-07T14:29:35.590Z,-1.55
2023-02-07T14:33:16.346Z,-1.57
2023-02-07T14:36:38.598Z,-1.63
2023-02-07T14:40:20.651Z,-1.67
2023-02-07T14:43:54.301Z,-1.65
2023-02-07T14:47:26.353Z,-1.67
2023-02-07T14:50:53.874Z,-1.68
2023-02-07T14:54:21.065Z,-1.68
2023-02-07T14:57:51.786Z,-1.67
2023-02-07T15:01:15.186Z,-1.67
2023-02-07T15:04:37.361Z,-1.69
2023-02-07T15:08:09.457Z,-1.69
2023-02-07T15:11:32.401Z,-1.70
2023-02-07T15:14:58.050Z,-1.73
2023-02-07T15:18:22.120Z,-1.75
2023-02-07T15:21:46.366Z,-1.74
2023-02-07T15:25:14.311Z,-1.71
2023-02-07T15:28:36.556Z,-1.73
2023-02-07T15:31:59.915Z,-1.76
2023-02-07T15:35:23.552Z,-1.76
2023-02-07T15:38:47.148Z,-1.74
2023-02-07T15:42:09.584Z,-1.76
2023-02-07T15:45:33.959Z,-1.86
2023-02-07T15:48:58.362Z,-1.73
2023-02-07T15:52:26.285Z,-1.72
2023-02-07T15:55:50.919Z,-1.73
2023-02-07T15:59:19.356Z,-1.76
2023-02-07T16:02:47.531Z,-1.81
2023-02-07T16:06:17.947Z,-1.72
2023-02-07T16:09:42.127Z,-1.79
2023-02-07T16:13:04.995Z,-1.77
2023-02-07T16:16:28.655Z,-1.75
2023-02-07T16:19:50.372Z,-1.74
2023-02-07T16:23:15.181Z,-1.73
2023-02-07T16:26:38.129Z,-1.74
2023-02-07T16:30:01.213Z,-1.76
2023-02-07T16:33:23.159Z,-1.72
2023-02-07T16:36:46.000Z,-1.70
2023-02-07T16:40:12.470Z,-1.73
2023-02-07T16:43:38.831Z,-1.73
2023-02-07T16:47:01.019Z,-1.73
2023-02-07T16:50:24.721Z,-1.76
2023-02-07T16:53:46.567Z,-1.73
2023-02-07T16:57:12.745Z,-1.78
2023-02-07T17:00:34.884Z,-1.73
2023-02-07T17:03:56.898Z,-1.73
2023-02-07T17:07:18.719Z,-1.72
2023-02-07T17:10:42.141Z,-1.73
2023-02-07T17:14:05.573Z,-1.73
2023-02-07T17:17:27.933Z,-1.75
2023-02-07T17:20:49.873Z,-1.76
2023-02-07T17:24:12.335Z,-1.78
2023-02-07T17:27:34.162Z,-1.78
2023-02-07T17:30:57.951Z,-1.76
2023-02-07T17:34:19.520Z,-1.78
2023-02-07T17:37:41.409Z,-1.76
2023-02-07T17:41:03.192Z,-1.75
2023-02-07T17:44:25.585Z,-1.80
2023-02-07T17:47:48.710Z,-1.74
2023-02-07T17:51:10.758Z,-1.72
2023-02-07T17:54:32.502Z,-1.78
2023-02-07T17:57:54.542Z,-1.71
2023-02-07T18:01:19.422Z,-1.78
2023-02-07T18:04:42.903Z,-1.75
2023-02-07T18:08:05.194Z,-1.70
2023-02-07T18:11:27.873Z,-1.75
2023-02-07T18:14:51.201Z,-1.70
2023-02-07T18:18:15.432Z,-1.67
2023-02-07T18:21:38.797Z,-1.70
2023-02-07T18:25:01.020Z,-1.70
2023-02-07T18:28:22.991Z,-1.74
2023-02-07T18:31:45.111Z,-1.73
2023-02-07T18:35:07.912Z,-1.71
2023-02-07T18:38:31.306Z,-1.71
2023-02-07T18:41:53.193Z,-1.71
2023-02-07T18:45:15.109Z,-1.71
2023-02-07T18:48:36.882Z,-1.69
2023-02-07T18:51:58.684Z,-1.69
2023-02-07T18:55:22.611Z,-1.68
2023-02-07T18:58:46.928Z,-1.69
2023-02-07T19:02:09.384Z,-1.67
2023-02-07T19:05:31.401Z,-1.67
2023-02-07T19:08:54.085Z,-1.69
2023-02-07T19:12:17.300Z,-1.66
2023-02-07T19:15:39.312Z,-1.67
2023-02-07T19:19:03.443Z,-1.67
2023-02-07T19:22:35.361Z,-1.68
2023-02-07T19:25:58.227Z,-1.68
2023-02-07T19:29:28.133Z,-1.72
2023-02-07T19:32:51.518Z,-1.71
2023-02-07T19:36:14.313Z,-1.78
2023-02-07T19:39:36.018Z,-1.73
2023-02-07T19:42:57.875Z,-1.75
2023-02-07T19:46:21.916Z,-1.72
2023-02-07T19:49:43.807Z,-1.70
2023-02-07T19:53:05.927Z,-1.71
2023-02-07T19:56:32.227Z,-1.77
2023-02-07T19:59:54.325Z,-1.73
2023-02-07T20:03:17.594Z,-1.73
2023-02-07T20:06:39.544Z,-1.78
2023-02-07T20:10:02.182Z,-1.73
2023-02-07T20:13:23.898Z,-1.74
2023-02-07T20:16:47.098Z,-1.75
2023-02-07T20:20:11.667Z,-1.75
2023-02-07T20:23:34.217Z,-1.75
2023-02-07T20:26:55.954Z,-1.75
2023-02-07T20:30:17.862Z,-1.75
2023-02-07T20:33:41.102Z,-1.77
2023-02-07T20:37:04.268Z,-1.78
2023-02-07T20:40:26.499Z,-1.75
2023-02-07T20:43:50.769Z,-1.75
2023-02-07T20:47:13.259Z,-1.77
2023-02-07T20:50:36.098Z,-1.76
2023-02-07T20:54:01.567Z,-1.81
2023-02-07T20:57:23.363Z,-1.75
2023-02-07T21:00:45.286Z,-1.78
2023-02-07T21:04:07.878Z,-1.82
2023-02-07T21:07:30.029Z,-1.76
2023-02-07T21:10:53.374Z,-1.76
2023-02-07T21:14:17.393Z,-1.77
2023-02-07T21:17:39.394Z,-1.76
2023-02-07T21:21:01.410Z,-1.74
2023-02-07T21:24:24.041Z,-1.77
2023-02-07T21:27:47.246Z,-1.73
2023-02-07T21:31:11.026Z,-1.78
2023-02-07T21:34:33.268Z,-1.76
2023-02-07T21:37:55.119Z,-1.71
2023-02-07T21:41:19.683Z,-1.73
2023-02-07T21:44:43.396Z,-1.72
2023-02-07T21:48:05.807Z,-1.76
2023-02-07T21:51:27.889Z,-1.71
2023-02-07T21:54:49.638Z,-1.72
2023-02-07T21:58:11.286Z,-1.71
2023-02-07T22:01:34.885Z,-1.78
2023-02-07T22:09:43.863Z,-1.75
2023-02-07T22:13:05.660Z,-1.67
2023-02-07T22:16:29.841Z,-1.65
2023-02-07T22:19:53.332Z,-1.72
2023-02-07T22:23:15.427Z,-1.66
2023-02-07T22:26:37.642Z,-1.70
2023-02-07T22:29:59.531Z,-1.66
2023-02-07T22:33:21.360Z,-1.58
2023-02-07T22:36:45.771Z,-1.59
2023-02-07T22:40:08.183Z,-1.59
2023-02-07T22:43:29.858Z,-1.58
2023-02-07T22:46:51.629Z,-1.58
2023-02-07T22:50:13.796Z,-1.56
2023-02-07T22:53:36.971Z,-1.55
2023-02-07T22:56:59.020Z,-1.61
2023-02-07T23:00:21.550Z,-1.56
2023-02-07T23:03:43.451Z,-1.52
2023-02-07T23:07:05.228Z,-1.53
2023-02-07T23:10:28.286Z,-1.57
2023-02-07T23:13:51.005Z,-1.50
2023-02-07T23:17:12.620Z,-1.48
2023-02-07T23:20:34.394Z,-1.46
2023-02-07T23:23:58.709Z,-1.46
2023-02-07T23:27:22.062Z,-1.44
2023-02-07T23:30:44.119Z,-1.39
2023-02-07T23:34:06.022Z,-1.42
2023-02-07T23:37:27.969Z,-1.41
2023-02-07T23:40:50.126Z,-1.39
2023-02-07T23:44:13.476Z,-1.40
2023-02-07T23:47:35.414Z,-1.45
2023-02-07T23:50:59.407Z,-1.45
2023-02-07T23:54:21.212Z,-1.35
2023-02-07T23:57:43.249Z,-1.35
